sensor_id;sensor_type;location;lat;lon;timestamp;pressure;altitude;pressure_sealevel;temperature
76476;BMP280;65308;50.078;14.854;2023-05-07T00:01:26;99400.34;;;10.44
76476;BMP280;65308;50.078;14.854;2023-05-07T00:03:54;99403.03;;;10.44
76476;BMP280;65308;50.078;14.854;2023-05-07T00:06:21;99407.53;;;10.47
76476;BMP280;65308;50.078;14.854;2023-05-07T00:08:47;99402.16;;;10.47
76476;BMP280;65308;50.078;14.854;2023-05-07T00:11:14;99401.41;;;10.46
76476;BMP280;65308;50.078;14.854;2023-05-07T00:13:41;99394.59;;;10.45
76476;BMP280;65308;50.078;14.854;2023-05-07T00:16:07;99405.69;;;10.44
76476;BMP280;65308;50.078;14.854;2023-05-07T00:18:34;99399.59;;;10.43
76476;BMP280;65308;50.078;14.854;2023-05-07T00:21:02;99406.91;;;10.43
76476;BMP280;65308;50.078;14.854;2023-05-07T00:23:28;99403.88;;;10.41
76476;BMP280;65308;50.078;14.854;2023-05-07T00:25:55;99403.56;;;10.39
76476;BMP280;65308;50.078;14.854;2023-05-07T00:28:22;99408.59;;;10.36
76476;BMP280;65308;50.078;14.854;2023-05-07T00:30:48;99421.69;;;10.34
76476;BMP280;65308;50.078;14.854;2023-05-07T00:33:15;99421.34;;;10.32
76476;BMP280;65308;50.078;14.854;2023-05-07T00:35:42;99426.91;;;10.38
76476;BMP280;65308;50.078;14.854;2023-05-07T00:38:10;99421.69;;;10.34
76476;BMP280;65308;50.078;14.854;2023-05-07T00:40:37;99414.19;;;10.29
76476;BMP280;65308;50.078;14.854;2023-05-07T00:43:03;99411.28;;;10.24
76476;BMP280;65308;50.078;14.854;2023-05-07T00:45:30;99408.59;;;10.24
76476;BMP280;65308;50.078;14.854;2023-05-07T00:47:58;99407.13;;;10.23
76476;BMP280;65308;50.078;14.854;2023-05-07T00:50:25;99405.63;;;10.22
76476;BMP280;65308;50.078;14.854;2023-05-07T00:52:53;99410.22;;;10.21
76476;BMP280;65308;50.078;14.854;2023-05-07T00:55:22;99418.56;;;10.23
76476;BMP280;65308;50.078;14.854;2023-05-07T00:57:49;99407.13;;;10.23
76476;BMP280;65308;50.078;14.854;2023-05-07T01:00:17;99407.00;;;10.26
76476;BMP280;65308;50.078;14.854;2023-05-07T01:02:44;99403.91;;;10.28
76476;BMP280;65308;50.078;14.854;2023-05-07T01:05:12;99411.94;;;10.28
76476;BMP280;65308;50.078;14.854;2023-05-07T01:07:40;99408.81;;;10.29
76476;BMP280;65308;50.078;14.854;2023-05-07T01:10:07;99410.31;;;10.30
76476;BMP280;65308;50.078;14.854;2023-05-07T01:12:37;99413.44;;;10.29
76476;BMP280;65308;50.078;14.854;2023-05-07T01:15:05;99408.94;;;10.26
76476;BMP280;65308;50.078;14.854;2023-05-07T01:17:34;99418.56;;;10.23
76476;BMP280;65308;50.078;14.854;2023-05-07T01:20:01;99420.59;;;10.19
76476;BMP280;65308;50.078;14.854;2023-05-07T01:22:31;99428.50;;;10.10
76476;BMP280;65308;50.078;14.854;2023-05-07T01:24:59;99423.16;;;10.10
76476;BMP280;65308;50.078;14.854;2023-05-07T01:27:26;99433.00;;;10.13
76476;BMP280;65308;50.078;14.854;2023-05-07T01:29:53;99420.19;;;10.21
76476;BMP280;65308;50.078;14.854;2023-05-07T01:32:25;99434.41;;;10.30
76476;BMP280;65308;50.078;14.854;2023-05-07T01:34:54;99427.22;;;10.40
76476;BMP280;65308;50.078;14.854;2023-05-07T01:37:22;99431.50;;;10.50
76476;BMP280;65308;50.078;14.854;2023-05-07T01:39:50;99440.50;;;10.56
76476;BMP280;65308;50.078;14.854;2023-05-07T01:42:17;99435.97;;;10.66
76476;BMP280;65308;50.078;14.854;2023-05-07T01:44:44;99435.53;;;10.80
76476;BMP280;65308;50.078;14.854;2023-05-07T01:47:11;99440.09;;;10.93
76476;BMP280;65308;50.078;14.854;2023-05-07T01:49:39;99439.28;;;11.05
76476;BMP280;65308;50.078;14.854;2023-05-07T01:52:06;99443.44;;;11.19
76476;BMP280;65308;50.078;14.854;2023-05-07T01:54:32;99440.38;;;11.29
76476;BMP280;65308;50.078;14.854;2023-05-07T01:57:00;99442.81;;;11.37
76476;BMP280;65308;50.078;14.854;2023-05-07T01:59:27;99441.69;;;11.47
76476;BMP280;65308;50.078;14.854;2023-05-07T02:01:54;99441.00;;;11.55
76476;BMP280;65308;50.078;14.854;2023-05-07T02:04:20;99434.94;;;11.64
76476;BMP280;65308;50.078;14.854;2023-05-07T02:06:47;99437.50;;;11.68
76476;BMP280;65308;50.078;14.854;2023-05-07T02:09:14;99434.56;;;11.75
76476;BMP280;65308;50.078;14.854;2023-05-07T02:11:41;99443.53;;;11.81
76476;BMP280;65308;50.078;14.854;2023-05-07T02:14:09;99439.84;;;11.88
76476;BMP280;65308;50.078;14.854;2023-05-07T02:16:35;99437.91;;;11.97
76476;BMP280;65308;50.078;14.854;2023-05-07T02:19:02;99442.59;;;12.06
76476;BMP280;65308;50.078;14.854;2023-05-07T02:21:28;99438.44;;;12.14
76476;BMP280;65308;50.078;14.854;2023-05-07T02:23:55;99438.91;;;12.22
76476;BMP280;65308;50.078;14.854;2023-05-07T02:26:22;99438.78;;;12.25
76476;BMP280;65308;50.078;14.854;2023-05-07T02:28:48;99434.00;;;12.29
76476;BMP280;65308;50.078;14.854;2023-05-07T02:31:17;99437.63;;;12.36
76476;BMP280;65308;50.078;14.854;2023-05-07T02:33:44;99438.22;;;12.40
76476;BMP280;65308;50.078;14.854;2023-05-07T02:36:12;99445.69;;;12.45
76476;BMP280;65308;50.078;14.854;2023-05-07T02:38:38;99444.09;;;12.47
76476;BMP280;65308;50.078;14.854;2023-05-07T02:41:05;99454.66;;;12.51
76476;BMP280;65308;50.078;14.854;2023-05-07T02:43:32;99444.53;;;12.55
76476;BMP280;65308;50.078;14.854;2023-05-07T02:46:02;99445.13;;;12.59
76476;BMP280;65308;50.078;14.854;2023-05-07T02:48:30;99439.59;;;12.63
76476;BMP280;65308;50.078;14.854;2023-05-07T02:50:57;99434.38;;;12.68
76476;BMP280;65308;50.078;14.854;2023-05-07T02:53:24;99447.97;;;12.65
76476;BMP280;65308;50.078;14.854;2023-05-07T02:55:52;99442.00;;;12.70
76476;BMP280;65308;50.078;14.854;2023-05-07T02:58:19;99438.59;;;12.69
76476;BMP280;65308;50.078;14.854;2023-05-07T03:00:45;99447.81;;;12.68
76476;BMP280;65308;50.078;14.854;2023-05-07T03:03:12;99452.31;;;12.71
76476;BMP280;65308;50.078;14.854;2023-05-07T03:05:40;99453.19;;;12.68
76476;BMP280;65308;50.078;14.854;2023-05-07T03:08:08;99452.44;;;12.68
76476;BMP280;65308;50.078;14.854;2023-05-07T03:10:35;99461.56;;;12.70
76476;BMP280;65308;50.078;14.854;2023-05-07T03:13:02;99459.91;;;12.73
76476;BMP280;65308;50.078;14.854;2023-05-07T03:15:28;99464.84;;;12.74
76476;BMP280;65308;50.078;14.854;2023-05-07T03:17:55;99454.84;;;12.66
76476;BMP280;65308;50.078;14.854;2023-05-07T03:20:22;99460.34;;;12.53
76476;BMP280;65308;50.078;14.854;2023-05-07T03:22:50;99459.31;;;12.60
76476;BMP280;65308;50.078;14.854;2023-05-07T03:25:16;99453.19;;;12.59
76476;BMP280;65308;50.078;14.854;2023-05-07T03:27:43;99464.38;;;12.58
76476;BMP280;65308;50.078;14.854;2023-05-07T03:30:11;99454.50;;;12.55
76476;BMP280;65308;50.078;14.854;2023-05-07T03:32:38;99460.34;;;12.53
76476;BMP280;65308;50.078;14.854;2023-05-07T03:35:05;99456.63;;;12.60
76476;BMP280;65308;50.078;14.854;2023-05-07T03:37:31;99457.38;;;12.60
76476;BMP280;65308;50.078;14.854;2023-05-07T03:39:59;99463.63;;;12.57
76476;BMP280;65308;50.078;14.854;2023-05-07T03:42:26;99462.75;;;12.60
76476;BMP280;65308;50.078;14.854;2023-05-07T03:44:52;99458.41;;;12.63
76476;BMP280;65308;50.078;14.854;2023-05-07T03:47:19;99469.75;;;12.67
76476;BMP280;65308;50.078;14.854;2023-05-07T03:49:46;99458.44;;;12.72
76476;BMP280;65308;50.078;14.854;2023-05-07T03:52:13;99465.25;;;12.73
76476;BMP280;65308;50.078;14.854;2023-05-07T03:54:39;99469.78;;;12.76
76476;BMP280;65308;50.078;14.854;2023-05-07T03:57:08;99469.59;;;12.80
76476;BMP280;65308;50.078;14.854;2023-05-07T03:59:34;99469.59;;;12.80
76476;BMP280;65308;50.078;14.854;2023-05-07T04:02:01;99469.19;;;12.81
76476;BMP280;65308;50.078;14.854;2023-05-07T04:04:27;99468.44;;;12.90
76476;BMP280;65308;50.078;14.854;2023-05-07T04:06:58;99462.63;;;12.91
76476;BMP280;65308;50.078;14.854;2023-05-07T04:09:24;99457.53;;;12.93
76476;BMP280;65308;50.078;14.854;2023-05-07T04:11:51;99446.66;;;12.97
76476;BMP280;65308;50.078;14.854;2023-05-07T04:14:19;99450.66;;;13.01
76476;BMP280;65308;50.078;14.854;2023-05-07T04:16:46;99453.53;;;13.07
76476;BMP280;65308;50.078;14.854;2023-05-07T04:19:12;99448.72;;;13.11
76476;BMP280;65308;50.078;14.854;2023-05-07T04:21:40;99453.53;;;12.98
76476;BMP280;65308;50.078;14.854;2023-05-07T04:24:07;99453.53;;;13.07
76476;BMP280;65308;50.078;14.854;2023-05-07T04:26:33;99453.97;;;13.15
76476;BMP280;65308;50.078;14.854;2023-05-07T04:29:00;99467.09;;;13.22
76476;BMP280;65308;50.078;14.854;2023-05-07T04:31:28;99459.44;;;13.30
76476;BMP280;65308;50.078;14.854;2023-05-07T04:33:55;99468.88;;;13.34
76476;BMP280;65308;50.078;14.854;2023-05-07T04:36:22;99462.31;;;13.44
76476;BMP280;65308;50.078;14.854;2023-05-07T04:38:52;99473.78;;;13.45
76476;BMP280;65308;50.078;14.854;2023-05-07T04:41:19;99474.50;;;13.55
76476;BMP280;65308;50.078;14.854;2023-05-07T04:43:46;99480.94;;;13.57
76476;BMP280;65308;50.078;14.854;2023-05-07T04:46:12;99479.00;;;13.58
76476;BMP280;65308;50.078;14.854;2023-05-07T04:48:40;99485.13;;;13.58
76476;BMP280;65308;50.078;14.854;2023-05-07T04:51:07;99484.22;;;13.61
76476;BMP280;65308;50.078;14.854;2023-05-07T04:53:33;99489.41;;;13.65
76476;BMP280;65308;50.078;14.854;2023-05-07T04:56:00;99487.66;;;13.71
76476;BMP280;65308;50.078;14.854;2023-05-07T04:58:27;99485.09;;;13.77
76476;BMP280;65308;50.078;14.854;2023-05-07T05:00:56;99499.84;;;13.81
76476;BMP280;65308;50.078;14.854;2023-05-07T05:03:23;99496.84;;;13.88
76476;BMP280;65308;50.078;14.854;2023-05-07T05:05:52;99494.28;;;13.94
76476;BMP280;65308;50.078;14.854;2023-05-07T05:08:19;99489.75;;;14.00
76476;BMP280;65308;50.078;14.854;2023-05-07T05:10:45;99493.34;;;14.06
76476;BMP280;65308;50.078;14.854;2023-05-07T05:13:13;99496.00;;;14.15
76476;BMP280;65308;50.078;14.854;2023-05-07T05:15:40;99504.94;;;14.21
76476;BMP280;65308;50.078;14.854;2023-05-07T05:18:07;99509.41;;;14.24
76476;BMP280;65308;50.078;14.854;2023-05-07T05:20:33;99501.47;;;14.30
76476;BMP280;65308;50.078;14.854;2023-05-07T05:23:01;99506.22;;;14.35
76476;BMP280;65308;50.078;14.854;2023-05-07T05:25:28;99498.44;;;14.37
76476;BMP280;65308;50.078;14.854;2023-05-07T05:27:54;99509.78;;;14.41
76476;BMP280;65308;50.078;14.854;2023-05-07T05:30:21;99507.66;;;14.45
76476;BMP280;65308;50.078;14.854;2023-05-07T05:32:48;99505.09;;;14.51
76476;BMP280;65308;50.078;14.854;2023-05-07T05:35:15;99508.63;;;14.57
76476;BMP280;65308;50.078;14.854;2023-05-07T05:37:41;99517.34;;;14.52
76476;BMP280;65308;50.078;14.854;2023-05-07T05:40:10;99525.41;;;14.52
76476;BMP280;65308;50.078;14.854;2023-05-07T05:42:37;99522.84;;;14.34
76476;BMP280;65308;50.078;14.854;2023-05-07T05:45:05;99534.91;;;14.05
76476;BMP280;65308;50.078;14.854;2023-05-07T05:47:31;99533.81;;;14.21
76476;BMP280;65308;50.078;14.854;2023-05-07T05:49:58;99522.84;;;14.34
76476;BMP280;65308;50.078;14.854;2023-05-07T05:52:24;99532.38;;;14.44
76476;BMP280;65308;50.078;14.854;2023-05-07T05:54:51;99527.50;;;14.24
76476;BMP280;65308;50.078;14.854;2023-05-07T05:57:19;99526.75;;;14.33
76476;BMP280;65308;50.078;14.854;2023-05-07T05:59:46;99524.63;;;14.37
76476;BMP280;65308;50.078;14.854;2023-05-07T06:02:13;99533.25;;;14.41
76476;BMP280;65308;50.078;14.854;2023-05-07T06:04:40;99534.75;;;14.51
76476;BMP280;65308;50.078;14.854;2023-05-07T06:07:07;99536.13;;;14.37
76476;BMP280;65308;50.078;14.854;2023-05-07T06:09:34;99531.91;;;14.45
76476;BMP280;65308;50.078;14.854;2023-05-07T06:12:00;99539.81;;;14.49
76476;BMP280;65308;50.078;14.854;2023-05-07T06:14:28;99532.47;;;14.49
76476;BMP280;65308;50.078;14.854;2023-05-07T06:16:55;99538.97;;;14.67
76476;BMP280;65308;50.078;14.854;2023-05-07T06:19:22;99539.78;;;14.82
76476;BMP280;65308;50.078;14.854;2023-05-07T06:21:49;99539.81;;;14.97
76476;BMP280;65308;50.078;14.854;2023-05-07T06:24:15;99555.47;;;15.08
76476;BMP280;65308;50.078;14.854;2023-05-07T06:26:42;99553.81;;;15.25
76476;BMP280;65308;50.078;14.854;2023-05-07T06:29:10;99558.13;;;15.32
76476;BMP280;65308;50.078;14.854;2023-05-07T06:31:40;99558.47;;;15.39
76476;BMP280;65308;50.078;14.854;2023-05-07T06:34:07;99565.41;;;15.55
76476;BMP280;65308;50.078;14.854;2023-05-07T06:36:34;99563.63;;;15.67
76476;BMP280;65308;50.078;14.854;2023-05-07T06:39:01;99565.47;;;15.75
76476;BMP280;65308;50.078;14.854;2023-05-07T06:41:28;99572.84;;;15.90
76476;BMP280;65308;50.078;14.854;2023-05-07T06:43:54;99573.03;;;16.01
76476;BMP280;65308;50.078;14.854;2023-05-07T06:46:21;99585.69;;;16.10
76476;BMP280;65308;50.078;14.854;2023-05-07T06:48:53;99581.56;;;16.14
76476;BMP280;65308;50.078;14.854;2023-05-07T06:51:22;99576.81;;;16.24
76476;BMP280;65308;50.078;14.854;2023-05-07T06:53:48;99575.53;;;16.40
76476;BMP280;65308;50.078;14.854;2023-05-07T06:56:15;99579.22;;;16.57
76476;BMP280;65308;50.078;14.854;2023-05-07T06:58:42;99589.56;;;16.79
76476;BMP280;65308;50.078;14.854;2023-05-07T07:01:08;99584.06;;;16.94
76476;BMP280;65308;50.078;14.854;2023-05-07T07:03:35;99590.78;;;17.24
76476;BMP280;65308;50.078;14.854;2023-05-07T07:06:03;99589.66;;;17.57
76476;BMP280;65308;50.078;14.854;2023-05-07T07:08:30;99588.97;;;17.94
76476;BMP280;65308;50.078;14.854;2023-05-07T07:10:57;99582.50;;;18.28
76476;BMP280;65308;50.078;14.854;2023-05-07T07:13:24;99585.63;;;18.53
76476;BMP280;65308;50.078;14.854;2023-05-07T07:15:51;99596.31;;;18.79
76476;BMP280;65308;50.078;14.854;2023-05-07T07:18:18;99590.63;;;18.77
76476;BMP280;65308;50.078;14.854;2023-05-07T07:20:45;99595.78;;;18.80
76476;BMP280;65308;50.078;14.854;2023-05-07T07:23:14;99598.34;;;19.06
76476;BMP280;65308;50.078;14.854;2023-05-07T07:25:44;99596.94;;;19.33
76476;BMP280;65308;50.078;14.854;2023-05-07T07:28:12;99595.22;;;19.64
76476;BMP280;65308;50.078;14.854;2023-05-07T07:30:39;99594.72;;;19.77
76476;BMP280;65308;50.078;14.854;2023-05-07T07:33:06;99604.03;;;20.09
76476;BMP280;65308;50.078;14.854;2023-05-07T07:35:33;99596.53;;;20.44
76476;BMP280;65308;50.078;14.854;2023-05-07T07:37:59;99599.91;;;20.61
76476;BMP280;65308;50.078;14.854;2023-05-07T07:40:28;99596.69;;;20.68
76476;BMP280;65308;50.078;14.854;2023-05-07T07:42:55;99608.75;;;20.09
76476;BMP280;65308;50.078;14.854;2023-05-07T07:45:21;99598.88;;;20.11
76476;BMP280;65308;50.078;14.854;2023-05-07T07:47:48;99603.06;;;20.07
76476;BMP280;65308;50.078;14.854;2023-05-07T07:50:15;99594.44;;;20.03
76476;BMP280;65308;50.078;14.854;2023-05-07T07:52:41;99603.06;;;19.96
76476;BMP280;65308;50.078;14.854;2023-05-07T07:55:08;99604.56;;;19.80
76476;BMP280;65308;50.078;14.854;2023-05-07T07:57:36;99601.38;;;19.53
76476;BMP280;65308;50.078;14.854;2023-05-07T08:00:04;99606.28;;;19.32
76476;BMP280;65308;50.078;14.854;2023-05-07T08:02:34;99606.22;;;18.99
76476;BMP280;65308;50.078;14.854;2023-05-07T08:05:01;99598.31;;;18.90
76476;BMP280;65308;50.078;14.854;2023-05-07T08:07:27;99598.72;;;18.71
76476;BMP280;65308;50.078;14.854;2023-05-07T08:09:54;99605.88;;;18.69
76476;BMP280;65308;50.078;14.854;2023-05-07T08:12:20;99608.28;;;18.55
76476;BMP280;65308;50.078;14.854;2023-05-07T08:14:48;99604.88;;;18.61
76476;BMP280;65308;50.078;14.854;2023-05-07T08:17:15;99610.81;;;18.65
76476;BMP280;65308;50.078;14.854;2023-05-07T08:19:42;99626.78;;;18.57
76476;BMP280;65308;50.078;14.854;2023-05-07T08:22:09;99621.78;;;18.50
76476;BMP280;65308;50.078;14.854;2023-05-07T08:24:36;99631.97;;;18.61
76476;BMP280;65308;50.078;14.854;2023-05-07T08:27:02;99615.53;;;18.75
76476;BMP280;65308;50.078;14.854;2023-05-07T08:29:29;99619.16;;;18.13
76476;BMP280;65308;50.078;14.854;2023-05-07T08:31:57;99625.22;;;17.70
76476;BMP280;65308;50.078;14.854;2023-05-07T08:34:24;99627.78;;;18.17
76476;BMP280;65308;50.078;14.854;2023-05-07T08:36:50;99629.44;;;18.46
76476;BMP280;65308;50.078;14.854;2023-05-07T08:39:17;99631.22;;;18.60
76476;BMP280;65308;50.078;14.854;2023-05-07T08:41:45;99631.31;;;18.77
76476;BMP280;65308;50.078;14.854;2023-05-07T08:44:16;99629.16;;;18.92
76476;BMP280;65308;50.078;14.854;2023-05-07T08:46:45;99631.56;;;18.79
76476;BMP280;65308;50.078;14.854;2023-05-07T08:49:15;99626.88;;;18.85
76476;BMP280;65308;50.078;14.854;2023-05-07T08:51:44;99636.28;;;18.90
76476;BMP280;65308;50.078;14.854;2023-05-07T08:54:11;99636.16;;;18.62
76476;BMP280;65308;50.078;14.854;2023-05-07T08:56:38;99639.50;;;18.94
76476;BMP280;65308;50.078;14.854;2023-05-07T08:59:05;99643.50;;;19.15
76476;BMP280;65308;50.078;14.854;2023-05-07T09:01:34;99644.28;;;19.32
76476;BMP280;65308;50.078;14.854;2023-05-07T09:04:01;99647.28;;;19.46
76476;BMP280;65308;50.078;14.854;2023-05-07T09:06:29;99648.28;;;19.48
76476;BMP280;65308;50.078;14.854;2023-05-07T09:08:56;99647.28;;;19.62
76476;BMP280;65308;50.078;14.854;2023-05-07T09:11:24;99644.81;;;19.70
76476;BMP280;65308;50.078;14.854;2023-05-07T09:13:53;99659.41;;;19.73
76476;BMP280;65308;50.078;14.854;2023-05-07T09:16:21;99658.66;;;19.83
76476;BMP280;65308;50.078;14.854;2023-05-07T09:18:51;99653.47;;;19.74
76476;BMP280;65308;50.078;14.854;2023-05-07T09:21:19;99653.72;;;19.87
76476;BMP280;65308;50.078;14.854;2023-05-07T09:23:47;99652.72;;;19.46
76476;BMP280;65308;50.078;14.854;2023-05-07T09:26:14;99648.03;;;19.57
76476;BMP280;65308;50.078;14.854;2023-05-07T09:28:42;99648.28;;;19.59
76476;BMP280;65308;50.078;14.854;2023-05-07T09:31:09;99651.97;;;19.84
76476;BMP280;65308;50.078;14.854;2023-05-07T09:33:36;99650.00;;;19.62
76476;BMP280;65308;50.078;14.854;2023-05-07T09:36:03;99641.56;;;19.32
76476;BMP280;65308;50.078;14.854;2023-05-07T09:38:31;99652.19;;;18.22
76476;BMP280;65308;50.078;14.854;2023-05-07T09:41:04;99652.47;;;17.93
76476;BMP280;65308;50.078;14.854;2023-05-07T09:43:35;99650.28;;;17.45
76476;BMP280;65308;50.078;14.854;2023-05-07T09:46:07;99641.09;;;16.55
76476;BMP280;65308;50.078;14.854;2023-05-07T09:48:38;99653.03;;;16.48
76476;BMP280;65308;50.078;14.854;2023-05-07T09:51:11;99654.00;;;16.31
76476;BMP280;65308;50.078;14.854;2023-05-07T09:53:41;99657.25;;;16.35
76476;BMP280;65308;50.078;14.854;2023-05-07T09:56:11;99658.03;;;16.06
76476;BMP280;65308;50.078;14.854;2023-05-07T09:58:39;99652.44;;;15.94
76476;BMP280;65308;50.078;14.854;2023-05-07T10:01:07;99660.94;;;16.52
76476;BMP280;65308;50.078;14.854;2023-05-07T10:03:37;99664.25;;;16.97
76476;BMP280;65308;50.078;14.854;2023-05-07T10:06:07;99668.03;;;17.25
76476;BMP280;65308;50.078;14.854;2023-05-07T10:08:35;99663.00;;;16.77
76476;BMP280;65308;50.078;14.854;2023-05-07T10:11:03;99660.75;;;17.11
76476;BMP280;65308;50.078;14.854;2023-05-07T10:13:32;99659.66;;;17.23
76476;BMP280;65308;50.078;14.854;2023-05-07T10:16:00;99665.47;;;17.16
76476;BMP280;65308;50.078;14.854;2023-05-07T10:18:27;99662.78;;;17.16
76476;BMP280;65308;50.078;14.854;2023-05-07T10:20:57;99657.34;;;17.63
76476;BMP280;65308;50.078;14.854;2023-05-07T10:23:26;99652.84;;;18.43
76476;BMP280;65308;50.078;14.854;2023-05-07T10:25:54;99655.78;;;18.88
76476;BMP280;65308;50.078;14.854;2023-05-07T10:28:23;99663.16;;;18.39
76476;BMP280;65308;50.078;14.854;2023-05-07T10:31:02;99667.66;;;17.33
76476;BMP280;65308;50.078;14.854;2023-05-07T10:33:32;99670.13;;;16.25
76476;BMP280;65308;50.078;14.854;2023-05-07T10:36:00;99660.59;;;15.70
76476;BMP280;65308;50.078;14.854;2023-05-07T10:38:30;99661.06;;;15.69
76476;BMP280;65308;50.078;14.854;2023-05-07T10:40:56;99657.75;;;15.74
76476;BMP280;65308;50.078;14.854;2023-05-07T10:43:23;99663.25;;;15.41
76476;BMP280;65308;50.078;14.854;2023-05-07T10:46:14;99659.44;;;15.47
76476;BMP280;65308;50.078;14.854;2023-05-07T10:49:09;99650.50;;;15.17
76476;BMP280;65308;50.078;14.854;2023-05-07T10:51:37;99655.56;;;15.78
76476;BMP280;65308;50.078;14.854;2023-05-07T10:54:20;99651.94;;;16.40
76476;BMP280;65308;50.078;14.854;2023-05-07T10:56:47;99656.44;;;16.29
76476;BMP280;65308;50.078;14.854;2023-05-07T10:59:32;99664.88;;;16.07
76476;BMP280;65308;50.078;14.854;2023-05-07T11:02:03;99645.91;;;15.86
76476;BMP280;65308;50.078;14.854;2023-05-07T11:04:31;99648.25;;;15.79
76476;BMP280;65308;50.078;14.854;2023-05-07T11:07:27;99645.63;;;16.14
76476;BMP280;65308;50.078;14.854;2023-05-07T11:09:55;99648.91;;;16.53
76476;BMP280;65308;50.078;14.854;2023-05-07T11:12:53;99660.94;;;17.08
76476;BMP280;65308;50.078;14.854;2023-05-07T11:15:33;99658.06;;;16.91
76476;BMP280;65308;50.078;14.854;2023-05-07T11:18:01;99642.22;;;16.48
76476;BMP280;65308;50.078;14.854;2023-05-07T11:20:52;99656.44;;;16.99
76476;BMP280;65308;50.078;14.854;2023-05-07T11:23:57;99658.41;;;17.24
76476;BMP280;65308;50.078;14.854;2023-05-07T11:26:25;99660.53;;;16.24
76476;BMP280;65308;50.078;14.854;2023-05-07T11:28:53;99662.91;;;16.37
76476;BMP280;65308;50.078;14.854;2023-05-07T11:31:21;99659.41;;;16.31
76476;BMP280;65308;50.078;14.854;2023-05-07T11:33:50;99660.72;;;16.20
76476;BMP280;65308;50.078;14.854;2023-05-07T11:36:18;99660.47;;;16.54
76476;BMP280;65308;50.078;14.854;2023-05-07T11:38:45;99655.47;;;16.32
76476;BMP280;65308;50.078;14.854;2023-05-07T11:41:11;99666.50;;;15.98
76476;BMP280;65308;50.078;14.854;2023-05-07T11:43:56;99667.59;;;16.21
76476;BMP280;65308;50.078;14.854;2023-05-07T11:46:23;99673.50;;;15.66
76476;BMP280;65308;50.078;14.854;2023-05-07T11:48:51;99665.75;;;16.13
76476;BMP280;65308;50.078;14.854;2023-05-07T11:51:22;99664.53;;;16.14
76476;BMP280;65308;50.078;14.854;2023-05-07T11:53:50;99664.44;;;15.40
76476;BMP280;65308;50.078;14.854;2023-05-07T11:56:17;99672.09;;;14.93
76476;BMP280;65308;50.078;14.854;2023-05-07T11:58:46;99671.56;;;15.04
76476;BMP280;65308;50.078;14.854;2023-05-07T12:01:13;99670.06;;;15.51
76476;BMP280;65308;50.078;14.854;2023-05-07T12:03:42;99676.13;;;15.75
76476;BMP280;65308;50.078;14.854;2023-05-07T12:06:11;99667.91;;;15.55
76476;BMP280;65308;50.078;14.854;2023-05-07T12:08:38;99668.44;;;15.98
76476;BMP280;65308;50.078;14.854;2023-05-07T12:11:06;99668.88;;;16.11
76476;BMP280;65308;50.078;14.854;2023-05-07T12:13:33;99664.28;;;16.82
76476;BMP280;65308;50.078;14.854;2023-05-07T12:16:03;99663.66;;;16.52
76476;BMP280;65308;50.078;14.854;2023-05-07T12:18:30;99669.97;;;16.49
76476;BMP280;65308;50.078;14.854;2023-05-07T12:20:57;99680.69;;;16.58
76476;BMP280;65308;50.078;14.854;2023-05-07T12:23:27;99674.03;;;16.74
76476;BMP280;65308;50.078;14.854;2023-05-07T12:25:54;99673.91;;;16.48
76476;BMP280;65308;50.078;14.854;2023-05-07T12:28:21;99673.50;;;16.70
76476;BMP280;65308;50.078;14.854;2023-05-07T12:30:51;99674.81;;;16.60
76476;BMP280;65308;50.078;14.854;2023-05-07T12:33:19;99674.88;;;16.45
76476;BMP280;65308;50.078;14.854;2023-05-07T12:35:49;99679.63;;;16.70
76476;BMP280;65308;50.078;14.854;2023-05-07T12:38:17;99673.56;;;16.96
76476;BMP280;65308;50.078;14.854;2023-05-07T12:40:47;99671.22;;;16.83
76476;BMP280;65308;50.078;14.854;2023-05-07T12:43:16;99673.78;;;16.92
76476;BMP280;65308;50.078;14.854;2023-05-07T12:45:44;99666.63;;;16.89
76476;BMP280;65308;50.078;14.854;2023-05-07T12:48:10;99670.22;;;16.81
76476;BMP280;65308;50.078;14.854;2023-05-07T12:50:58;99683.06;;;16.86
76476;BMP280;65308;50.078;14.854;2023-05-07T12:53:27;99680.28;;;17.00
76476;BMP280;65308;50.078;14.854;2023-05-07T12:55:59;99670.03;;;17.05
76476;BMP280;65308;50.078;14.854;2023-05-07T12:58:27;99678.41;;;16.36
76476;BMP280;65308;50.078;14.854;2023-05-07T13:00:55;99687.34;;;16.13
76476;BMP280;65308;50.078;14.854;2023-05-07T13:03:25;99682.25;;;15.61
76476;BMP280;65308;50.078;14.854;2023-05-07T13:05:54;99679.69;;;15.67
76476;BMP280;65308;50.078;14.854;2023-05-07T13:08:27;99677.09;;;16.02
76476;BMP280;65308;50.078;14.854;2023-05-07T13:10:58;99683.44;;;16.14
76476;BMP280;65308;50.078;14.854;2023-05-07T13:13:28;99678.19;;;15.81
76476;BMP280;65308;50.078;14.854;2023-05-07T13:15:55;99675.00;;;15.53
76476;BMP280;65308;50.078;14.854;2023-05-07T13:18:21;99673.88;;;15.20
76476;BMP280;65308;50.078;14.854;2023-05-07T13:20:48;99667.31;;;15.36
76476;BMP280;65308;50.078;14.854;2023-05-07T13:23:15;99682.81;;;15.50
76476;BMP280;65308;50.078;14.854;2023-05-07T13:25:42;99677.50;;;15.56
76476;BMP280;65308;50.078;14.854;2023-05-07T13:28:09;99679.31;;;15.50
76476;BMP280;65308;50.078;14.854;2023-05-07T13:30:36;99670.13;;;15.42
76476;BMP280;65308;50.078;14.854;2023-05-07T13:33:03;99673.28;;;15.16
76476;BMP280;65308;50.078;14.854;2023-05-07T13:35:30;99671.50;;;14.89
76476;BMP280;65308;50.078;14.854;2023-05-07T13:37:56;99672.75;;;14.37
76476;BMP280;65308;50.078;14.854;2023-05-07T13:40:23;99660.78;;;14.29
76476;BMP280;65308;50.078;14.854;2023-05-07T13:42:50;99668.28;;;14.67
76476;BMP280;65308;50.078;14.854;2023-05-07T13:45:18;99666.56;;;14.88
76476;BMP280;65308;50.078;14.854;2023-05-07T13:47:45;99669.31;;;14.69
76476;BMP280;65308;50.078;14.854;2023-05-07T13:50:14;99653.50;;;14.53
76476;BMP280;65308;50.078;14.854;2023-05-07T13:52:42;99667.28;;;14.55
76476;BMP280;65308;50.078;14.854;2023-05-07T13:55:11;99675.63;;;14.66
76476;BMP280;65308;50.078;14.854;2023-05-07T13:57:38;99668.44;;;14.63
76476;BMP280;65308;50.078;14.854;2023-05-07T14:00:06;99666.19;;;14.71
76476;BMP280;65308;50.078;14.854;2023-05-07T14:02:34;99674.50;;;14.49